sensor_id;sensor_type;location;lat;lon;timestamp;pressure;altitude;pressure_sealevel;temperature
82778;BMP280;72510;45.128;20.734;2023-12-07T00:08:56;100372.19;;;2.06
82778;BMP280;72510;45.128;20.734;2023-12-07T00:18:59;100380.09;;;2.02
82778;BMP280;72510;45.128;20.734;2023-12-07T00:29:00;100391.34;;;2.03
82778;BMP280;72510;45.128;20.734;2023-12-07T00:39:01;100401.47;;;2.04
82778;BMP280;72510;45.128;20.734;2023-12-07T00:49:05;100410.50;;;2.03
82778;BMP280;72510;45.128;20.734;2023-12-07T00:59:06;100405.97;;;2.04
82778;BMP280;72510;45.128;20.734;2023-12-07T01:09:08;100394.31;;;2.08
82778;BMP280;72510;45.128;20.734;2023-12-07T01:19:13;100394.31;;;2.08
82778;BMP280;72510;45.128;20.734;2023-12-07T01:29:15;100392.03;;;2.11
82778;BMP280;72510;45.128;20.734;2023-12-07T01:39:16;100390.84;;;2.15
82778;BMP280;72510;45.128;20.734;2023-12-07T01:49:17;100381.47;;;2.14
82778;BMP280;72510;45.128;20.734;2023-12-07T01:59:19;100394.13;;;2.23
82778;BMP280;72510;45.128;20.734;2023-12-07T02:09:23;100399.38;;;2.23
82778;BMP280;72510;45.128;20.734;2023-12-07T02:29:51;100385.34;;;2.33
82778;BMP280;72510;45.128;20.734;2023-12-07T02:39:55;100402.50;;;2.41
82778;BMP280;72510;45.128;20.734;2023-12-07T02:49:57;100398.34;;;2.44
82778;BMP280;72510;45.128;20.734;2023-12-07T02:59:59;100409.56;;;2.48
82778;BMP280;72510;45.128;20.734;2023-12-07T03:10:00;100413.28;;;2.51
82778;BMP280;72510;45.128;20.734;2023-12-07T03:20:02;100408.72;;;2.55
82778;BMP280;72510;45.128;20.734;2023-12-07T03:30:07;100424.06;;;2.60
82778;BMP280;72510;45.128;20.734;2023-12-07T03:40:08;100414.34;;;2.57
82778;BMP280;72510;45.128;20.734;2023-12-07T03:50:11;100429.66;;;2.62
82778;BMP280;72510;45.128;20.734;2023-12-07T04:00:13;100431.94;;;2.60
82778;BMP280;72510;45.128;20.734;2023-12-07T04:10:15;100438.69;;;2.61
82778;BMP280;72510;45.128;20.734;2023-12-07T04:20:18;100444.66;;;2.65
82778;BMP280;72510;45.128;20.734;2023-12-07T04:30:19;100448.75;;;2.66
82778;BMP280;72510;45.128;20.734;2023-12-07T04:40:21;100463.31;;;2.71
82778;BMP280;72510;45.128;20.734;2023-12-07T04:50:22;100462.94;;;2.72
82778;BMP280;72510;45.128;20.734;2023-12-07T05:00:24;100473.06;;;2.74
82778;BMP280;72510;45.128;20.734;2023-12-07T05:10:25;100480.16;;;2.77
82778;BMP280;72510;45.128;20.734;2023-12-07T05:20:27;100477.97;;;2.72
82778;BMP280;72510;45.128;20.734;2023-12-07T05:30:30;100480.91;;;2.77
82778;BMP280;72510;45.128;20.734;2023-12-07T05:40:31;100491.75;;;2.79
82778;BMP280;72510;45.128;20.734;2023-12-07T05:50:32;100507.53;;;2.79
82778;BMP280;72510;45.128;20.734;2023-12-07T06:00:34;100523.66;;;2.81
82778;BMP280;72510;45.128;20.734;2023-12-07T06:10:35;100521.03;;;2.81
82778;BMP280;72510;45.128;20.734;2023-12-07T06:20:36;100540.16;;;2.86
82778;BMP280;72510;45.128;20.734;2023-12-07T06:30:38;100540.56;;;2.84
82778;BMP280;72510;45.128;20.734;2023-12-07T06:40:39;100541.00;;;2.79
82778;BMP280;72510;45.128;20.734;2023-12-07T06:50:44;100551.81;;;2.84
82778;BMP280;72510;45.128;20.734;2023-12-07T07:00:46;100570.63;;;2.83
82778;BMP280;72510;45.128;20.734;2023-12-07T07:10:48;100570.31;;;2.77
82778;BMP280;72510;45.128;20.734;2023-12-07T07:20:49;100576.66;;;2.80
82778;BMP280;72510;45.128;20.734;2023-12-07T07:30:50;100577.41;;;2.80
82778;BMP280;72510;45.128;20.734;2023-12-07T07:40:55;100584.16;;;2.81
82778;BMP280;72510;45.128;20.734;2023-12-07T07:50:56;100588.13;;;2.97
82778;BMP280;72510;45.128;20.734;2023-12-07T08:01:01;100581.31;;;2.99
82778;BMP280;72510;45.128;20.734;2023-12-07T08:11:03;100604.16;;;3.06
82778;BMP280;72510;45.128;20.734;2023-12-07T08:21:07;100606.47;;;3.00
82778;BMP280;72510;45.128;20.734;2023-12-07T08:31:13;100612.81;;;3.03
82778;BMP280;72510;45.128;20.734;2023-12-07T08:41:14;100608.97;;;3.11
82778;BMP280;72510;45.128;20.734;2023-12-07T08:51:15;100627.31;;;3.18
82778;BMP280;72510;45.128;20.734;2023-12-07T09:01:17;100626.88;;;3.23
82778;BMP280;72510;45.128;20.734;2023-12-07T09:11:22;100629.38;;;3.31
82778;BMP280;72510;45.128;20.734;2023-12-07T09:21:24;100622.50;;;3.40
82778;BMP280;72510;45.128;20.734;2023-12-07T09:31:33;100609.97;;;3.48
82778;BMP280;72510;45.128;20.734;2023-12-07T09:41:34;100605.00;;;3.54
82778;BMP280;72510;45.128;20.734;2023-12-07T09:51:36;100609.06;;;3.58
82778;BMP280;72510;45.128;20.734;2023-12-07T10:01:37;100601.53;;;3.60
82778;BMP280;72510;45.128;20.734;2023-12-07T10:11:40;100595.75;;;3.69
82778;BMP280;72510;45.128;20.734;2023-12-07T10:21:42;100586.63;;;3.74
82778;BMP280;72510;45.128;20.734;2023-12-07T10:31:50;100580.56;;;3.77
82778;BMP280;72510;45.128;20.734;2023-12-07T10:41:59;100577.81;;;3.84
82778;BMP280;72510;45.128;20.734;2023-12-07T10:52:07;100572.44;;;3.91
82778;BMP280;72510;45.128;20.734;2023-12-07T11:02:09;100576.84;;;3.98
82778;BMP280;72510;45.128;20.734;2023-12-07T11:12:28;100565.91;;;3.99
82778;BMP280;72510;45.128;20.734;2023-12-07T11:22:30;100578.59;;;4.05
82778;BMP280;72510;45.128;20.734;2023-12-07T11:32:32;100575.16;;;4.08
82778;BMP280;72510;45.128;20.734;2023-12-07T11:42:34;100570.06;;;4.21
82778;BMP280;72510;45.128;20.734;2023-12-07T11:52:35;100575.81;;;4.35
82778;BMP280;72510;45.128;20.734;2023-12-07T12:02:36;100568.63;;;4.36
82778;BMP280;72510;45.128;20.734;2023-12-07T12:12:41;100567.19;;;4.31
82778;BMP280;72510;45.128;20.734;2023-12-07T12:22:42;100567.00;;;4.22
82778;BMP280;72510;45.128;20.734;2023-12-07T12:32:46;100549.75;;;4.17
82778;BMP280;72510;45.128;20.734;2023-12-07T12:42:50;100549.69;;;4.21
82778;BMP280;72510;45.128;20.734;2023-12-07T12:52:51;100545.50;;;4.24
82778;BMP280;72510;45.128;20.734;2023-12-07T13:02:54;100546.22;;;4.24
82778;BMP280;72510;45.128;20.734;2023-12-07T13:12:56;100551.03;;;4.29
82778;BMP280;72510;45.128;20.734;2023-12-07T13:22:57;100552.59;;;4.27
82778;BMP280;72510;45.128;20.734;2023-12-07T13:33:01;100557.50;;;4.25
82778;BMP280;72510;45.128;20.734;2023-12-07T13:43:08;100578.09;;;4.13
82778;BMP280;72510;45.128;20.734;2023-12-07T13:53:12;100593.53;;;3.91
82778;BMP280;72510;45.128;20.734;2023-12-07T14:03:17;100599.31;;;3.79
82778;BMP280;72510;45.128;20.734;2023-12-07T14:13:20;100599.78;;;3.77
82778;BMP280;72510;45.128;20.734;2023-12-07T14:23:24;100601.97;;;3.79
82778;BMP280;72510;45.128;20.734;2023-12-07T14:33:27;100614.00;;;3.80
82778;BMP280;72510;45.128;20.734;2023-12-07T14:43:28;100627.91;;;3.80
82778;BMP280;72510;45.128;20.734;2023-12-07T14:53:31;100633.94;;;3.81
82778;BMP280;72510;45.128;20.734;2023-12-07T15:03:33;100644.09;;;3.83
82778;BMP280;72510;45.128;20.734;2023-12-07T15:13:36;100629.16;;;3.76
82778;BMP280;72510;45.128;20.734;2023-12-07T15:23:40;100641.22;;;3.73
82778;BMP280;72510;45.128;20.734;2023-12-07T15:33:45;100653.75;;;3.66
82778;BMP280;72510;45.128;20.734;2023-12-07T15:43:46;100657.56;;;3.61
82778;BMP280;72510;45.128;20.734;2023-12-07T15:53:48;100665.84;;;3.59
82778;BMP280;72510;45.128;20.734;2023-12-07T16:03:49;100674.88;;;3.58
82778;BMP280;72510;45.128;20.734;2023-12-07T16:13:51;100683.59;;;3.55
82778;BMP280;72510;45.128;20.734;2023-12-07T16:23:52;100691.84;;;3.57
82778;BMP280;72510;45.128;20.734;2023-12-07T16:33:54;100699.75;;;3.57
82778;BMP280;72510;45.128;20.734;2023-12-07T16:44:00;100708.00;;;3.59
82778;BMP280;72510;45.128;20.734;2023-12-07T16:54:03;100714.03;;;3.56
82778;BMP280;72510;45.128;20.734;2023-12-07T17:04:04;100709.56;;;3.53
82778;BMP280;72510;45.128;20.734;2023-12-07T17:14:07;100717.13;;;3.51
82778;BMP280;72510;45.128;20.734;2023-12-07T17:24:08;100724.69;;;3.49
82778;BMP280;72510;45.128;20.734;2023-12-07T17:34:10;100723.19;;;3.48
82778;BMP280;72510;45.128;20.734;2023-12-07T17:44:11;100728.88;;;3.43
82778;BMP280;72510;45.128;20.734;2023-12-07T17:54:13;100737.22;;;3.38
82778;BMP280;72510;45.128;20.734;2023-12-07T18:04:17;100732.75;;;3.35
82778;BMP280;72510;45.128;20.734;2023-12-07T18:14:18;100750.41;;;3.34
82778;BMP280;72510;45.128;20.734;2023-12-07T18:24:22;100755.38;;;3.29
82778;BMP280;72510;45.128;20.734;2023-12-07T18:34:23;100756.50;;;3.28
82778;BMP280;72510;45.128;20.734;2023-12-07T18:44:24;100759.53;;;3.26
82778;BMP280;72510;45.128;20.734;2023-12-07T18:54:26;100749.81;;;3.23
82778;BMP280;72510;45.128;20.734;2023-12-07T19:04:29;100746.81;;;3.21
82778;BMP280;72510;45.128;20.734;2023-12-07T19:14:33;100749.88;;;3.19
82778;BMP280;72510;45.128;20.734;2023-12-07T19:24:34;100748.00;;;3.16
82778;BMP280;72510;45.128;20.734;2023-12-07T19:34:37;100757.41;;;3.14
82778;BMP280;72510;45.128;20.734;2023-12-07T19:44:38;100764.94;;;3.15
82778;BMP280;72510;45.128;20.734;2023-12-07T19:54:39;100749.13;;;3.15
82778;BMP280;72510;45.128;20.734;2023-12-07T20:04:41;100761.16;;;3.16
82778;BMP280;72510;45.128;20.734;2023-12-07T20:14:44;100767.56;;;3.15
82778;BMP280;72510;45.128;20.734;2023-12-07T20:24:45;100763.84;;;3.13
82778;BMP280;72510;45.128;20.734;2023-12-07T20:34:47;100751.81;;;3.12
82778;BMP280;72510;45.128;20.734;2023-12-07T20:44:51;100761.16;;;3.16
82778;BMP280;72510;45.128;20.734;2023-12-07T20:54:53;100754.78;;;3.14
82778;BMP280;72510;45.128;20.734;2023-12-07T21:04:54;100759.66;;;3.15
82778;BMP280;72510;45.128;20.734;2023-12-07T21:14:55;100756.25;;;3.18
82778;BMP280;72510;45.128;20.734;2023-12-07T21:24:56;100771.34;;;3.14
82778;BMP280;72510;45.128;20.734;2023-12-07T21:34:58;100767.31;;;3.02
82778;BMP280;72510;45.128;20.734;2023-12-07T21:44:59;100770.72;;;2.99
82778;BMP280;72510;45.128;20.734;2023-12-07T21:55:01;100770.44;;;2.94
82778;BMP280;72510;45.128;20.734;2023-12-07T22:05:02;100776.81;;;2.93
82778;BMP280;72510;45.128;20.734;2023-12-07T22:15:06;100771.56;;;2.93
82778;BMP280;72510;45.128;20.734;2023-12-07T22:25:10;100782.03;;;2.96
82778;BMP280;72510;45.128;20.734;2023-12-07T22:35:11;100773.41;;;2.96
82778;BMP280;72510;45.128;20.734;2023-12-07T22:45:13;100777.88;;;2.99
82778;BMP280;72510;45.128;20.734;2023-12-07T22:55:14;100783.09;;;3.02
82778;BMP280;72510;45.128;20.734;2023-12-07T23:05:19;100772.59;;;2.99
82778;BMP280;72510;45.128;20.734;2023-12-07T23:15:20;100765.03;;;3.04
82778;BMP280;72510;45.128;20.734;2023-12-07T23:25:24;100769.94;;;3.02
82778;BMP280;72510;45.128;20.734;2023-12-07T23:35:25;100770.34;;;3.01
82778;BMP280;72510;45.128;20.734;2023-12-07T23:45:26;100762.09;;;2.99
82778;BMP280;72510;45.128;20.734;2023-12-07T23:55:27;100759.81;;;3.01
